sensor_id;sensor_type;location;lat;lon;timestamp;pressure;altitude;pressure_sealevel;temperature;humidity
64687;BME280;51113;53.646;-113.674;2023-08-30T00:01:35;93198.47;;;29.76;27.29
64687;BME280;51113;53.646;-113.674;2023-08-30T00:04:04;93194.72;;;29.63;27.62
64687;BME280;51113;53.646;-113.674;2023-08-30T00:06:33;93197.66;;;29.82;27.27
64687;BME280;51113;53.646;-113.674;2023-08-30T00:09:02;93186.28;;;29.68;29.06
64687;BME280;51113;53.646;-113.674;2023-08-30T00:11:31;93185.47;;;29.74;28.71
64687;BME280;51113;53.646;-113.674;2023-08-30T00:14:04;93192.25;;;29.89;27.71
64687;BME280;51113;53.646;-113.674;2023-08-30T00:16:36;93189.25;;;29.84;27.32
64687;BME280;51113;53.646;-113.674;2023-08-30T00:19:06;93182.75;;;29.81;27.48
64687;BME280;51113;53.646;-113.674;2023-08-30T00:21:35;93182.41;;;29.76;28.39
64687;BME280;51113;53.646;-113.674;2023-08-30T00:24:04;93186.28;;;29.68;28.89
64687;BME280;51113;53.646;-113.674;2023-08-30T00:26:33;93179.38;;;29.70;27.46
64687;BME280;51113;53.646;-113.674;2023-08-30T00:29:02;93179.03;;;29.65;28.44
64687;BME280;51113;53.646;-113.674;2023-08-30T00:31:30;93176.34;;;29.65;29.42
64687;BME280;51113;53.646;-113.674;2023-08-30T00:33:59;93175.53;;;29.71;29.10
64687;BME280;51113;53.646;-113.674;2023-08-30T00:36:27;93170.97;;;29.68;29.99
64687;BME280;51113;53.646;-113.674;2023-08-30T00:38:56;93166.88;;;29.49;31.06
64687;BME280;51113;53.646;-113.674;2023-08-30T00:41:24;93159.97;;;29.52;30.90
64687;BME280;51113;53.646;-113.674;2023-08-30T00:43:53;93161.53;;;29.49;30.92
64687;BME280;51113;53.646;-113.674;2023-08-30T00:46:22;93158.09;;;29.42;31.15
64687;BME280;51113;53.646;-113.674;2023-08-30T00:48:50;93151.28;;;29.34;30.61
64687;BME280;51113;53.646;-113.674;2023-08-30T00:51:19;93158.22;;;29.17;31.10
64687;BME280;51113;53.646;-113.674;2023-08-30T00:53:49;93152.06;;;29.31;29.82
64687;BME280;51113;53.646;-113.674;2023-08-30T00:56:19;93145.50;;;29.42;29.56
64687;BME280;51113;53.646;-113.674;2023-08-30T00:58:48;93153.94;;;29.37;29.94
64687;BME280;51113;53.646;-113.674;2023-08-30T01:01:18;93122.31;;;29.14;30.57
64687;BME280;51113;53.646;-113.674;2023-08-30T01:03:47;93148.31;;;29.10;31.29
64687;BME280;51113;53.646;-113.674;2023-08-30T01:06:15;93153.25;;;29.22;31.32
64687;BME280;51113;53.646;-113.674;2023-08-30T01:08:44;93142.25;;;28.99;32.33
64687;BME280;51113;53.646;-113.674;2023-08-30T01:11:26;93150.69;;;28.98;32.81
64687;BME280;51113;53.646;-113.674;2023-08-30T01:14:07;93141.94;;;28.79;32.84
64687;BME280;51113;53.646;-113.674;2023-08-30T01:16:37;93148.47;;;28.68;33.64
64687;BME280;51113;53.646;-113.674;2023-08-30T01:22:43;93139.34;;;28.44;35.33
64687;BME280;51113;53.646;-113.674;2023-08-30T01:27:51;93137.09;;;28.35;35.71
64687;BME280;51113;53.646;-113.674;2023-08-30T01:30:21;93133.25;;;28.22;36.44
64687;BME280;51113;53.646;-113.674;2023-08-30T01:32:51;93131.75;;;28.03;37.03
64687;BME280;51113;53.646;-113.674;2023-08-30T01:35:20;93132.53;;;27.89;37.68
64687;BME280;51113;53.646;-113.674;2023-08-30T01:37:50;93127.19;;;27.86;37.78
64687;BME280;51113;53.646;-113.674;2023-08-30T01:40:20;93119.56;;;27.66;38.76
64687;BME280;51113;53.646;-113.674;2023-08-30T01:42:49;93127.16;;;27.57;39.12
64687;BME280;51113;53.646;-113.674;2023-08-30T01:45:19;93124.84;;;27.49;39.35
64687;BME280;51113;53.646;-113.674;2023-08-30T01:47:49;93127.13;;;27.40;39.73
64687;BME280;51113;53.646;-113.674;2023-08-30T01:50:20;93127.09;;;27.25;39.95
64687;BME280;51113;53.646;-113.674;2023-08-30T01:52:50;93121.31;;;27.02;40.86
64687;BME280;51113;53.646;-113.674;2023-08-30T01:55:20;93121.69;;;26.97;40.89
64687;BME280;51113;53.646;-113.674;2023-08-30T01:57:50;93114.00;;;26.88;41.34
64687;BME280;51113;53.646;-113.674;2023-08-30T02:00:18;93113.97;;;26.78;41.50
64687;BME280;51113;53.646;-113.674;2023-08-30T02:02:48;93116.19;;;26.65;41.90
64687;BME280;51113;53.646;-113.674;2023-08-30T02:05:17;93112.31;;;26.45;42.28
64687;BME280;51113;53.646;-113.674;2023-08-30T02:07:49;93108.47;;;26.42;42.58
64687;BME280;51113;53.646;-113.674;2023-08-30T02:10:32;93112.97;;;26.31;42.56
64687;BME280;51113;53.646;-113.674;2023-08-30T02:13:03;93107.13;;;26.11;43.12
64687;BME280;51113;53.646;-113.674;2023-08-30T02:15:33;93106.38;;;26.11;43.26
64687;BME280;51113;53.646;-113.674;2023-08-30T02:18:05;93100.56;;;25.94;43.97
64687;BME280;51113;53.646;-113.674;2023-08-30T02:20:34;93091.38;;;25.85;44.37
64687;BME280;51113;53.646;-113.674;2023-08-30T02:23:03;93087.47;;;25.71;44.86
64687;BME280;51113;53.646;-113.674;2023-08-30T02:25:40;93078.16;;;25.51;45.14
64687;BME280;51113;53.646;-113.674;2023-08-30T02:28:09;93081.13;;;25.42;45.16
64687;BME280;51113;53.646;-113.674;2023-08-30T02:30:38;93085.97;;;25.30;45.95
64687;BME280;51113;53.646;-113.674;2023-08-30T02:33:06;93093.88;;;25.23;46.26
64687;BME280;51113;53.646;-113.674;2023-08-30T02:35:34;93086.94;;;25.11;46.48
64687;BME280;51113;53.646;-113.674;2023-08-30T02:38:03;93096.19;;;24.91;47.22
64687;BME280;51113;53.646;-113.674;2023-08-30T02:40:33;93091.13;;;24.78;47.58
64687;BME280;51113;53.646;-113.674;2023-08-30T02:43:02;93100.19;;;24.74;47.84
64687;BME280;51113;53.646;-113.674;2023-08-30T02:45:30;93095.50;;;24.64;48.29
64687;BME280;51113;53.646;-113.674;2023-08-30T02:47:59;93099.13;;;24.48;49.00
64687;BME280;51113;53.646;-113.674;2023-08-30T02:50:28;93102.50;;;24.45;49.02
64687;BME280;51113;53.646;-113.674;2023-08-30T02:52:56;93092.91;;;24.37;49.29
64687;BME280;51113;53.646;-113.674;2023-08-30T02:55:25;93098.00;;;24.23;49.78
64687;BME280;51113;53.646;-113.674;2023-08-30T02:57:53;93098.63;;;24.13;50.42
64687;BME280;51113;53.646;-113.674;2023-08-30T03:00:22;93094.38;;;24.08;50.45
64687;BME280;51113;53.646;-113.674;2023-08-30T03:02:51;93095.31;;;23.93;51.13
64687;BME280;51113;53.646;-113.674;2023-08-30T03:05:20;93088.72;;;23.83;51.20
64687;BME280;51113;53.646;-113.674;2023-08-30T03:07:48;93096.22;;;23.78;51.57
64687;BME280;51113;53.646;-113.674;2023-08-30T03:10:20;93092.94;;;23.62;52.25
64687;BME280;51113;53.646;-113.674;2023-08-30T03:12:49;93085.56;;;23.51;52.31
64687;BME280;51113;53.646;-113.674;2023-08-30T03:15:18;93086.91;;;23.42;52.78
64687;BME280;51113;53.646;-113.674;2023-08-30T03:17:46;93096.28;;;23.36;53.14
64687;BME280;51113;53.646;-113.674;2023-08-30T03:20:15;93097.28;;;23.28;53.35
64687;BME280;51113;53.646;-113.674;2023-08-30T03:22:44;93102.47;;;23.20;53.56
64687;BME280;51113;53.646;-113.674;2023-08-30T03:25:12;93104.38;;;23.01;54.24
64687;BME280;51113;53.646;-113.674;2023-08-30T03:27:43;93095.13;;;22.91;54.52
64687;BME280;51113;53.646;-113.674;2023-08-30T03:30:12;93096.59;;;22.88;54.50
64687;BME280;51113;53.646;-113.674;2023-08-30T03:32:41;93092.34;;;22.84;54.64
64687;BME280;51113;53.646;-113.674;2023-08-30T03:35:09;93097.06;;;22.75;54.89
64687;BME280;51113;53.646;-113.674;2023-08-30T03:37:38;93097.72;;;22.68;55.09
64687;BME280;51113;53.646;-113.674;2023-08-30T03:40:07;93099.03;;;22.59;55.98
64687;BME280;51113;53.646;-113.674;2023-08-30T03:42:35;93097.09;;;22.55;55.52
64687;BME280;51113;53.646;-113.674;2023-08-30T03:45:04;93096.09;;;22.44;56.14
64687;BME280;51113;53.646;-113.674;2023-08-30T03:47:33;93100.69;;;22.28;56.91
64687;BME280;51113;53.646;-113.674;2023-08-30T03:50:02;93099.00;;;22.20;56.77
64687;BME280;51113;53.646;-113.674;2023-08-30T03:52:31;93093.78;;;22.23;56.48
64687;BME280;51113;53.646;-113.674;2023-08-30T03:54:59;93106.09;;;22.16;56.83
64687;BME280;51113;53.646;-113.674;2023-08-30T03:57:29;93100.53;;;22.21;56.72
64687;BME280;51113;53.646;-113.674;2023-08-30T03:59:57;93098.44;;;22.11;57.10
64687;BME280;51113;53.646;-113.674;2023-08-30T04:02:26;93094.88;;;22.03;57.27
64687;BME280;51113;53.646;-113.674;2023-08-30T04:04:54;93095.63;;;22.04;57.20
64687;BME280;51113;53.646;-113.674;2023-08-30T04:07:23;93091.03;;;21.85;57.71
64687;BME280;51113;53.646;-113.674;2023-08-30T04:09:52;93092.91;;;21.84;57.77
64687;BME280;51113;53.646;-113.674;2023-08-30T04:12:20;93087.38;;;21.74;58.22
64687;BME280;51113;53.646;-113.674;2023-08-30T04:14:49;93085.69;;;21.66;58.62
64687;BME280;51113;53.646;-113.674;2023-08-30T04:17:17;93096.28;;;21.66;58.39
64687;BME280;51113;53.646;-113.674;2023-08-30T04:19:46;93087.25;;;21.51;59.04
64687;BME280;51113;53.646;-113.674;2023-08-30T04:22:15;93092.44;;;21.47;59.02
64687;BME280;51113;53.646;-113.674;2023-08-30T04:24:44;93089.13;;;21.35;59.43
64687;BME280;51113;53.646;-113.674;2023-08-30T04:27:13;93092.28;;;21.24;60.04
64687;BME280;51113;53.646;-113.674;2023-08-30T04:29:41;93085.44;;;21.23;59.86
64687;BME280;51113;53.646;-113.674;2023-08-30T04:32:13;93083.47;;;21.20;59.97
64687;BME280;51113;53.646;-113.674;2023-08-30T04:34:41;93077.59;;;21.11;60.08
64687;BME280;51113;53.646;-113.674;2023-08-30T04:37:10;93080.91;;;21.08;60.27
64687;BME280;51113;53.646;-113.674;2023-08-30T04:39:38;93076.72;;;21.07;60.30
64687;BME280;51113;53.646;-113.674;2023-08-30T04:42:06;93075.25;;;20.94;60.42
64687;BME280;51113;53.646;-113.674;2023-08-30T04:44:35;93077.22;;;20.97;60.37
64687;BME280;51113;53.646;-113.674;2023-08-30T04:47:03;93079.25;;;20.88;60.50
64687;BME280;51113;53.646;-113.674;2023-08-30T04:49:32;93076.84;;;20.83;60.70
64687;BME280;51113;53.646;-113.674;2023-08-30T04:52:01;93068.84;;;20.79;60.48
64687;BME280;51113;53.646;-113.674;2023-08-30T04:54:30;93071.88;;;20.66;61.20
64687;BME280;51113;53.646;-113.674;2023-08-30T04:56:58;93065.56;;;20.54;61.52
64687;BME280;51113;53.646;-113.674;2023-08-30T04:59:27;93070.22;;;20.45;61.54
64687;BME280;51113;53.646;-113.674;2023-08-30T05:01:56;93061.31;;;20.38;61.73
64687;BME280;51113;53.646;-113.674;2023-08-30T05:04:24;93066.28;;;20.39;61.63
64687;BME280;51113;53.646;-113.674;2023-08-30T05:06:53;93070.22;;;20.33;61.59
64687;BME280;51113;53.646;-113.674;2023-08-30T05:09:22;93066.38;;;20.30;61.92
64687;BME280;51113;53.646;-113.674;2023-08-30T05:11:53;93068.06;;;20.23;62.17
64687;BME280;51113;53.646;-113.674;2023-08-30T05:14:22;93064.56;;;20.19;61.67
64687;BME280;51113;53.646;-113.674;2023-08-30T05:16:50;93056.88;;;20.14;62.08
64687;BME280;51113;53.646;-113.674;2023-08-30T05:19:19;93060.31;;;20.02;62.35
64687;BME280;51113;53.646;-113.674;2023-08-30T05:21:48;93055.59;;;19.95;62.30
64687;BME280;51113;53.646;-113.674;2023-08-30T05:24:19;93061.78;;;19.87;62.53
64687;BME280;51113;53.646;-113.674;2023-08-30T05:26:47;93058.06;;;19.76;62.51
64687;BME280;51113;53.646;-113.674;2023-08-30T05:29:16;93055.88;;;19.66;63.03
64687;BME280;51113;53.646;-113.674;2023-08-30T05:31:45;93049.41;;;19.63;62.65
64687;BME280;51113;53.646;-113.674;2023-08-30T05:34:14;93058.19;;;19.55;62.64
64687;BME280;51113;53.646;-113.674;2023-08-30T05:36:42;93047.84;;;19.26;65.51
64687;BME280;51113;53.646;-113.674;2023-08-30T05:39:11;93048.59;;;19.14;65.81
64687;BME280;51113;53.646;-113.674;2023-08-30T05:41:40;93057.53;;;18.77;67.99
64687;BME280;51113;53.646;-113.674;2023-08-30T05:44:09;93058.28;;;18.65;67.32
64687;BME280;51113;53.646;-113.674;2023-08-30T05:46:37;93039.88;;;18.44;68.36
64687;BME280;51113;53.646;-113.674;2023-08-30T05:49:06;93045.38;;;18.18;70.06
64687;BME280;51113;53.646;-113.674;2023-08-30T05:51:34;93031.53;;;18.09;69.53
64687;BME280;51113;53.646;-113.674;2023-08-30T05:54:03;93029.75;;;18.34;67.66
64687;BME280;51113;53.646;-113.674;2023-08-30T05:56:32;93043.31;;;18.24;70.05
64687;BME280;51113;53.646;-113.674;2023-08-30T05:59:00;93041.63;;;18.19;68.76
64687;BME280;51113;53.646;-113.674;2023-08-30T06:01:29;93033.59;;;18.36;68.03
64687;BME280;51113;53.646;-113.674;2023-08-30T06:03:58;93025.03;;;18.60;66.54
64687;BME280;51113;53.646;-113.674;2023-08-30T06:06:27;93026.81;;;18.68;65.96
64687;BME280;51113;53.646;-113.674;2023-08-30T06:08:55;93021.88;;;18.67;66.01
64687;BME280;51113;53.646;-113.674;2023-08-30T06:11:24;93022.38;;;18.60;65.97
64687;BME280;51113;53.646;-113.674;2023-08-30T06:13:52;93019.13;;;18.63;65.64
64687;BME280;51113;53.646;-113.674;2023-08-30T06:16:21;93008.84;;;18.70;65.24
64687;BME280;51113;53.646;-113.674;2023-08-30T06:18:50;93013.78;;;18.72;65.01
64687;BME280;51113;53.646;-113.674;2023-08-30T06:21:18;93010.94;;;18.77;64.67
64687;BME280;51113;53.646;-113.674;2023-08-30T06:23:47;93002.28;;;18.77;64.75
64687;BME280;51113;53.646;-113.674;2023-08-30T06:26:16;93003.59;;;18.70;65.48
64687;BME280;51113;53.646;-113.674;2023-08-30T06:28:44;93002.38;;;18.68;65.93
64687;BME280;51113;53.646;-113.674;2023-08-30T06:31:28;92994.75;;;18.54;66.63
64687;BME280;51113;53.646;-113.674;2023-08-30T06:33:57;92999.13;;;18.50;67.34
64687;BME280;51113;53.646;-113.674;2023-08-30T06:36:26;92999.34;;;18.45;67.19
64687;BME280;51113;53.646;-113.674;2023-08-30T06:38:54;92994.16;;;18.36;67.35
64687;BME280;51113;53.646;-113.674;2023-08-30T06:41:23;93004.13;;;18.31;67.31
64687;BME280;51113;53.646;-113.674;2023-08-30T06:43:51;92998.28;;;18.25;67.65
64687;BME280;51113;53.646;-113.674;2023-08-30T06:46:20;92996.84;;;18.16;67.76
64687;BME280;51113;53.646;-113.674;2023-08-30T06:48:49;92989.66;;;18.04;68.69
64687;BME280;51113;53.646;-113.674;2023-08-30T06:51:17;92993.47;;;17.94;69.19
64687;BME280;51113;53.646;-113.674;2023-08-30T06:53:46;92999.56;;;17.86;69.54
64687;BME280;51113;53.646;-113.674;2023-08-30T06:56:15;92992.44;;;17.66;71.03
64687;BME280;51113;53.646;-113.674;2023-08-30T06:58:43;92996.09;;;17.44;71.18
64687;BME280;51113;53.646;-113.674;2023-08-30T07:01:12;93003.91;;;17.32;71.65
64687;BME280;51113;53.646;-113.674;2023-08-30T07:03:41;92991.66;;;17.15;72.66
64687;BME280;51113;53.646;-113.674;2023-08-30T07:06:10;92991.34;;;16.78;74.40
64687;BME280;51113;53.646;-113.674;2023-08-30T07:08:39;92982.59;;;16.66;75.09
64687;BME280;51113;53.646;-113.674;2023-08-30T07:11:08;92983.50;;;16.61;74.84
64687;BME280;51113;53.646;-113.674;2023-08-30T07:13:54;92987.13;;;16.39;76.08
64687;BME280;51113;53.646;-113.674;2023-08-30T07:16:22;92974.81;;;16.23;77.20
64687;BME280;51113;53.646;-113.674;2023-08-30T07:18:51;92973.75;;;16.15;77.91
64687;BME280;51113;53.646;-113.674;2023-08-30T07:21:19;92981.78;;;16.10;77.33
64687;BME280;51113;53.646;-113.674;2023-08-30T07:23:48;92984.25;;;16.06;78.12
64687;BME280;51113;53.646;-113.674;2023-08-30T07:26:17;92979.34;;;15.96;78.29
64687;BME280;51113;53.646;-113.674;2023-08-30T07:28:45;92974.88;;;15.88;79.25
64687;BME280;51113;53.646;-113.674;2023-08-30T07:31:14;92973.00;;;16.06;79.29
64687;BME280;51113;53.646;-113.674;2023-08-30T07:33:46;92984.25;;;15.98;78.57
64687;BME280;51113;53.646;-113.674;2023-08-30T07:36:14;92990.72;;;16.00;79.46
64687;BME280;51113;53.646;-113.674;2023-08-30T07:38:43;92988.41;;;16.07;79.66
64687;BME280;51113;53.646;-113.674;2023-08-30T07:41:12;92969.16;;;16.12;79.72
64687;BME280;51113;53.646;-113.674;2023-08-30T07:43:41;92979.00;;;16.06;80.08
64687;BME280;51113;53.646;-113.674;2023-08-30T07:46:09;92979.00;;;16.06;79.43
64687;BME280;51113;53.646;-113.674;2023-08-30T07:48:38;92969.28;;;16.24;78.98
64687;BME280;51113;53.646;-113.674;2023-08-30T07:51:06;92965.88;;;16.32;78.72
64687;BME280;51113;53.646;-113.674;2023-08-30T07:53:35;92968.19;;;16.34;78.75
64687;BME280;51113;53.646;-113.674;2023-08-30T07:56:03;92965.38;;;16.39;77.84
64687;BME280;51113;53.646;-113.674;2023-08-30T07:58:32;92962.00;;;16.38;77.60
64687;BME280;51113;53.646;-113.674;2023-08-30T08:01:01;92959.41;;;16.30;77.86
64687;BME280;51113;53.646;-113.674;2023-08-30T08:03:29;92955.13;;;16.17;78.04
64687;BME280;51113;53.646;-113.674;2023-08-30T08:05:58;92952.94;;;16.19;78.16
64687;BME280;51113;53.646;-113.674;2023-08-30T08:08:28;92952.19;;;16.18;77.77
64687;BME280;51113;53.646;-113.674;2023-08-30T08:10:58;92937.56;;;16.08;78.20
64687;BME280;51113;53.646;-113.674;2023-08-30T08:13:27;92946.19;;;16.00;78.06
64687;BME280;51113;53.646;-113.674;2023-08-30T08:15:56;92930.06;;;15.72;79.87
64687;BME280;51113;53.646;-113.674;2023-08-30T08:18:26;92932.53;;;15.77;80.14
64687;BME280;51113;53.646;-113.674;2023-08-30T08:20:55;92927.75;;;15.71;79.12
64687;BME280;51113;53.646;-113.674;2023-08-30T08:23:23;92928.69;;;15.75;78.66
64687;BME280;51113;53.646;-113.674;2023-08-30T08:25:59;92937.16;;;15.72;79.60
64687;BME280;51113;53.646;-113.674;2023-08-30T08:28:28;92942.53;;;15.67;79.73
64687;BME280;51113;53.646;-113.674;2023-08-30T08:30:57;92932.97;;;15.54;79.83
64687;BME280;51113;53.646;-113.674;2023-08-30T08:33:26;92928.50;;;15.45;80.17
64687;BME280;51113;53.646;-113.674;2023-08-30T08:35:54;92939.13;;;15.32;80.56
64687;BME280;51113;53.646;-113.674;2023-08-30T08:38:23;92935.88;;;15.43;78.72
64687;BME280;51113;53.646;-113.674;2023-08-30T08:41:02;92932.03;;;15.49;78.78
64687;BME280;51113;53.646;-113.674;2023-08-30T08:43:35;92935.91;;;15.61;78.12
64687;BME280;51113;53.646;-113.674;2023-08-30T08:46:04;92926.97;;;15.79;76.17
64687;BME280;51113;53.646;-113.674;2023-08-30T08:48:40;92930.47;;;16.09;73.83
64687;BME280;51113;53.646;-113.674;2023-08-30T08:51:09;92935.25;;;16.07;74.15
64687;BME280;51113;53.646;-113.674;2023-08-30T08:53:38;92923.19;;;16.23;72.48
64687;BME280;51113;53.646;-113.674;2023-08-30T08:56:07;92925.00;;;16.31;71.45
64687;BME280;51113;53.646;-113.674;2023-08-30T08:58:36;92924.84;;;16.36;70.41
64687;BME280;51113;53.646;-113.674;2023-08-30T09:01:07;92919.84;;;16.52;69.40
64687;BME280;51113;53.646;-113.674;2023-08-30T09:03:47;92921.88;;;16.46;68.60
64687;BME280;51113;53.646;-113.674;2023-08-30T09:06:16;92912.78;;;16.44;69.02
64687;BME280;51113;53.646;-113.674;2023-08-30T09:08:46;92917.56;;;16.42;71.01
64687;BME280;51113;53.646;-113.674;2023-08-30T09:11:14;92913.03;;;16.68;67.32
64687;BME280;51113;53.646;-113.674;2023-08-30T09:13:44;92912.44;;;16.54;69.11
64687;BME280;51113;53.646;-113.674;2023-08-30T09:16:15;92924.63;;;16.50;67.60
64687;BME280;51113;53.646;-113.674;2023-08-30T09:18:44;92921.59;;;16.39;68.28
64687;BME280;51113;53.646;-113.674;2023-08-30T09:21:33;92914.09;;;16.67;67.00
64687;BME280;51113;53.646;-113.674;2023-08-30T09:24:04;92915.31;;;16.70;67.45
64687;BME280;51113;53.646;-113.674;2023-08-30T09:26:34;92907.00;;;16.68;67.25
64687;BME280;51113;53.646;-113.674;2023-08-30T09:29:08;92909.47;;;16.64;66.99
64687;BME280;51113;53.646;-113.674;2023-08-30T09:31:38;92913.28;;;16.75;66.79
64687;BME280;51113;53.646;-113.674;2023-08-30T09:34:08;92911.25;;;16.81;64.94
64687;BME280;51113;53.646;-113.674;2023-08-30T09:36:39;92911.16;;;16.69;65.16
64687;BME280;51113;53.646;-113.674;2023-08-30T09:39:10;92915.53;;;16.56;68.16
64687;BME280;51113;53.646;-113.674;2023-08-30T09:41:46;92910.84;;;16.32;68.85
64687;BME280;51113;53.646;-113.674;2023-08-30T09:44:16;92903.16;;;16.19;68.89
64687;BME280;51113;53.646;-113.674;2023-08-30T09:46:49;92909.53;;;16.00;69.89
64687;BME280;51113;53.646;-113.674;2023-08-30T09:49:25;92904.31;;;15.83;70.64
64687;BME280;51113;53.646;-113.674;2023-08-30T09:51:54;92897.88;;;15.72;71.70
64687;BME280;51113;53.646;-113.674;2023-08-30T09:54:24;92898.03;;;15.49;71.84
64687;BME280;51113;53.646;-113.674;2023-08-30T09:57:06;92886.94;;;15.44;72.80
64687;BME280;51113;53.646;-113.674;2023-08-30T09:59:35;92905.09;;;15.32;74.23
64687;BME280;51113;53.646;-113.674;2023-08-30T10:02:07;92900.78;;;15.27;75.29
64687;BME280;51113;53.646;-113.674;2023-08-30T10:04:40;92890.16;;;15.06;75.66
64687;BME280;51113;53.646;-113.674;2023-08-30T10:07:11;92890.44;;;14.88;76.65
64687;BME280;51113;53.646;-113.674;2023-08-30T10:09:41;92894.16;;;15.12;75.74
64687;BME280;51113;53.646;-113.674;2023-08-30T10:12:34;92896.13;;;14.90;76.75
64687;BME280;51113;53.646;-113.674;2023-08-30T10:15:03;92896.72;;;14.78;77.43
64687;BME280;51113;53.646;-113.674;2023-08-30T10:17:33;92895.97;;;14.77;77.77
64687;BME280;51113;53.646;-113.674;2023-08-30T10:20:04;92901.91;;;14.61;78.58
64687;BME280;51113;53.646;-113.674;2023-08-30T10:22:36;92897.09;;;14.45;79.24
64687;BME280;51113;53.646;-113.674;2023-08-30T10:25:12;92902.97;;;14.51;79.44
64687;BME280;51113;53.646;-113.674;2023-08-30T10:27:47;92901.31;;;14.33;80.46
64687;BME280;51113;53.646;-113.674;2023-08-30T10:30:18;92896.69;;;14.30;80.68
64687;BME280;51113;53.646;-113.674;2023-08-30T10:32:47;92905.19;;;14.35;80.93
64687;BME280;51113;53.646;-113.674;2023-08-30T10:35:18;92905.91;;;14.27;81.15
64687;BME280;51113;53.646;-113.674;2023-08-30T10:37:59;92899.31;;;14.30;80.85
64687;BME280;51113;53.646;-113.674;2023-08-30T10:40:28;92904.94;;;14.45;81.25
64687;BME280;51113;53.646;-113.674;2023-08-30T10:43:00;92898.28;;;14.39;80.71
64687;BME280;51113;53.646;-113.674;2023-08-30T10:45:29;92902.44;;;14.40;81.15
64687;BME280;51113;53.646;-113.674;2023-08-30T10:47:59;92908.31;;;14.46;81.08
64687;BME280;51113;53.646;-113.674;2023-08-30T10:50:30;92898.75;;;14.41;81.53
64687;BME280;51113;53.646;-113.674;2023-08-30T10:52:59;92899.56;;;14.50;81.05
64687;BME280;51113;53.646;-113.674;2023-08-30T10:55:28;92901.13;;;14.60;81.39
64687;BME280;51113;53.646;-113.674;2023-08-30T10:58:03;92893.00;;;14.62;81.91
64687;BME280;51113;53.646;-113.674;2023-08-30T11:00:35;92882.25;;;14.63;80.83
64687;BME280;51113;53.646;-113.674;2023-08-30T11:03:10;92879.63;;;14.63;81.38
64687;BME280;51113;53.646;-113.674;2023-08-30T11:05:40;92877.03;;;14.72;81.20
64687;BME280;51113;53.646;-113.674;2023-08-30T11:08:10;92892.13;;;14.83;80.68
64687;BME280;51113;53.646;-113.674;2023-08-30T11:10:40;92880.59;;;14.84;81.06
64687;BME280;51113;53.646;-113.674;2023-08-30T11:13:10;92889.38;;;15.06;79.09
64687;BME280;51113;53.646;-113.674;2023-08-30T11:15:43;92886.47;;;15.25;77.99
64687;BME280;51113;53.646;-113.674;2023-08-30T11:18:11;92891.25;;;15.31;77.98
64687;BME280;51113;53.646;-113.674;2023-08-30T11:20:39;92884.00;;;15.37;77.55
64687;BME280;51113;53.646;-113.674;2023-08-30T11:23:08;92882.63;;;15.39;78.02
64687;BME280;51113;53.646;-113.674;2023-08-30T11:25:37;92874.78;;;15.39;77.71
64687;BME280;51113;53.646;-113.674;2023-08-30T11:28:06;92882.16;;;15.46;78.36
64687;BME280;51113;53.646;-113.674;2023-08-30T11:30:40;92880.00;;;15.48;78.60
64687;BME280;51113;53.646;-113.674;2023-08-30T11:33:08;92870.16;;;15.54;77.32
64687;BME280;51113;53.646;-113.674;2023-08-30T11:35:38;92875.09;;;15.64;76.93
64687;BME280;51113;53.646;-113.674;2023-08-30T11:38:07;92875.69;;;15.78;75.77
64687;BME280;51113;53.646;-113.674;2023-08-30T11:40:36;92874.13;;;15.86;75.15
64687;BME280;51113;53.646;-113.674;2023-08-30T11:43:06;92876.59;;;15.91;73.96
64687;BME280;51113;53.646;-113.674;2023-08-30T11:45:36;92871.00;;;16.01;73.19
64687;BME280;51113;53.646;-113.674;2023-08-30T11:48:05;92862.19;;;16.14;71.97
64687;BME280;51113;53.646;-113.674;2023-08-30T11:50:35;92856.00;;;16.19;71.90
64687;BME280;51113;53.646;-113.674;2023-08-30T11:53:14;92854.47;;;16.18;71.29
64687;BME280;51113;53.646;-113.674;2023-08-30T11:55:43;92851.84;;;16.18;71.16
64687;BME280;51113;53.646;-113.674;2023-08-30T11:58:12;92860.31;;;16.23;70.41
64687;BME280;51113;53.646;-113.674;2023-08-30T12:00:40;92854.16;;;16.19;71.67
64687;BME280;51113;53.646;-113.674;2023-08-30T12:03:09;92860.16;;;16.20;70.90
64687;BME280;51113;53.646;-113.674;2023-08-30T12:05:48;92861.38;;;16.22;70.80
64687;BME280;51113;53.646;-113.674;2023-08-30T12:08:21;92871.19;;;16.34;70.05
64687;BME280;51113;53.646;-113.674;2023-08-30T12:10:55;92867.31;;;16.40;69.26
64687;BME280;51113;53.646;-113.674;2023-08-30T12:13:25;92879.25;;;16.58;67.91
64687;BME280;51113;53.646;-113.674;2023-08-30T12:15:55;92878.63;;;16.70;67.67
64687;BME280;51113;53.646;-113.674;2023-08-30T12:18:29;92881.06;;;16.75;67.68
64687;BME280;51113;53.646;-113.674;2023-08-30T12:21:02;92882.28;;;16.77;67.55
64687;BME280;51113;53.646;-113.674;2023-08-30T12:23:32;92882.09;;;16.83;67.33
64687;BME280;51113;53.646;-113.674;2023-08-30T12:26:06;92882.72;;;16.79;67.52
64687;BME280;51113;53.646;-113.674;2023-08-30T12:28:43;92883.38;;;16.76;68.17
64687;BME280;51113;53.646;-113.674;2023-08-30T12:31:12;92883.41;;;16.68;68.04
64687;BME280;51113;53.646;-113.674;2023-08-30T12:33:41;92874.13;;;16.70;67.02
64687;BME280;51113;53.646;-113.674;2023-08-30T12:36:10;92874.13;;;16.70;67.41
64687;BME280;51113;53.646;-113.674;2023-08-30T12:38:38;92867.50;;;16.73;66.47
64687;BME280;51113;53.646;-113.674;2023-08-30T12:41:07;92866.53;;;16.77;66.06
64687;BME280;51113;53.646;-113.674;2023-08-30T12:43:36;92878.44;;;16.75;66.49
64687;BME280;51113;53.646;-113.674;2023-08-30T12:46:04;92862.13;;;16.69;67.33
64687;BME280;51113;53.646;-113.674;2023-08-30T12:48:33;92874.28;;;16.74;66.37
64687;BME280;51113;53.646;-113.674;2023-08-30T12:51:01;92875.38;;;16.73;66.79